Panamax Christina — 5BQS4 — position and weather

sailwx.info

Track history (hours):
 
Tides and Currents Weather Stations Pressure Air Temp Water Temp Dewpoint Dewpoint Depression Visibility Wind Speed Wind Dir Waves Ship Positions

Panamax Christina

Last reported at 2017-Nov-11 23:48 UTC. Time now 2017-Nov-23 17:07 UTC.
Position N 30°38' W 011°35'.
Warning: this ship's position is 11 days out of date.

Length 229 m; draft 12 m.

Type: Cargo ship. MMSI: 212921000.

Date/timePositionNaut miles runAvg speedWind from/ knotsBaromVisibWave heightAir tempDewpointWater temp
2017-Nov-11 23:48N 30°38' W 011°35'3 9.7
2017-Nov-11 23:30N 30°35' W 011°37'22 9.4
2017-Nov-11 21:11N 30°17' W 011°51'2 9.7
2017-Nov-11 21:00N 30°16' W 011°52'96 9.9
2017-Nov-11 11:19N 28°56' W 012°55'6 9.6
2017-Nov-11 10:42N 28°52' W 012°59'3 9.5
2017-Nov-11 10:24N 28°49' W 013°01'5 9.6
2017-Nov-11 09:53N 28°45' W 013°04'4 9.2
2017-Nov-11 09:29N 28°42' W 013°07'5 9.6
2017-Nov-11 09:00N 28°39' W 013°10'6 9.9
2017-Nov-11 08:24N 28°34' W 013°13'410.1
2017-Nov-11 07:59N 28°30' W 013°16'2110.4
2017-Nov-11 05:58N 28°13' W 013°30'610.3
2017-Nov-11 05:25N 28°08' W 013°33'410.1
2017-Nov-11 04:59N 28°05' W 013°36'5 9.9
2017-Nov-11 04:30N 28°01' W 013°39'5 9.7
2017-Nov-11 04:00N 27°57' W 013°42'5 9.5
2017-Nov-11 03:30N 27°53' W 013°45'5 9.6
2017-Nov-11 03:00N 27°49' W 013°48'5 9.4
2017-Nov-11 02:29N 27°45' W 013°51'4 9.3
2017-Nov-11 02:00N 27°41' W 013°54'5 9.0
2017-Nov-11 01:30N 27°37' W 013°57'5 9.0
2017-Nov-11 01:00N 27°34' W 014°00'5 9.4
2017-Nov-11 00:30N 27°30' W 014°03'5 9.4
2017-Nov-11 00:00N 27°26' W 014°06'5 9.8
2017-Nov-10 23:30N 27°22' W 014°09'5 9.9
2017-Nov-10 23:00N 27°18' W 014°12'5 9.7
2017-Nov-10 22:30N 27°14' W 014°16'5 9.4
2017-Nov-10 22:00N 27°10' W 014°19'5 9.2
2017-Nov-10 21:30N 27°06' W 014°21'5 9.3
2017-Nov-10 21:00N 27°02' W 014°24'5 9.5
2017-Nov-10 20:30N 26°58' W 014°28'5 9.4
2017-Nov-10 20:00N 26°55' W 014°30'5 9.5
2017-Nov-10 19:30N 26°51' W 014°34'5 9.5
2017-Nov-10 19:00N 26°47' W 014°37'5 9.4
2017-Nov-10 18:30N 26°43' W 014°40'5 9.6
2017-Nov-10 18:00N 26°39' W 014°43'5 9.5
2017-Nov-10 17:30N 26°35' W 014°45'5 9.2
2017-Nov-10 17:00N 26°31' W 014°48'5 9.3
2017-Nov-10 16:29N 26°27' W 014°51'4 9.3
2017-Nov-10 16:00N 26°23' W 014°54'6 9.5
2017-Nov-10 15:25N 26°19' W 014°58'4 9.7
2017-Nov-10 15:00N 26°16' W 015°00'5 9.5
2017-Nov-10 14:29N 26°12' W 015°04'5 9.5
2017-Nov-10 13:59N 26°08' W 015°07'5 9.7
2017-Nov-10 13:30N 26°04' W 015°09'5 9.5
2017-Nov-10 13:00N 25°60' W 015°13'5 9.5
2017-Nov-10 12:27N 25°56' W 015°16'4 9.4
2017-Nov-10 11:59N 25°52' W 015°19'5 9.6
2017-Nov-10 11:27N 25°48' W 015°22'4 9.6
2017-Nov-10 11:00N 25°44' W 015°24'  
Track history (hours):
 
Tides and Currents Weather Stations Pressure Air Temp Water Temp Dewpoint Dewpoint Depression Visibility Wind Speed Wind Dir Waves Ship Positions

Panamax Christina

Last reported at 2017-Nov-11 23:48 UTC. Time now 2017-Nov-23 17:07 UTC.
Position N 30°38' W 011°35'.
Warning: this ship's position is 11 days out of date.

Length 229 m; draft 12 m.

Type: Cargo ship. MMSI: 212921000.

Date/timePositionNaut miles runAvg speedWind from/ knotsBaromVisibWave heightAir tempDewpointWater temp
2017-Nov-11 23:48N 30°38' W 011°35'3 9.7
2017-Nov-11 23:30N 30°35' W 011°37'22 9.4
2017-Nov-11 21:11N 30°17' W 011°51'2 9.7
2017-Nov-11 21:00N 30°16' W 011°52'96 9.9
2017-Nov-11 11:19N 28°56' W 012°55'6 9.6
2017-Nov-11 10:42N 28°52' W 012°59'3 9.5
2017-Nov-11 10:24N 28°49' W 013°01'5 9.6
2017-Nov-11 09:53N 28°45' W 013°04'4 9.2
2017-Nov-11 09:29N 28°42' W 013°07'5 9.6
2017-Nov-11 09:00N 28°39' W 013°10'6 9.9
2017-Nov-11 08:24N 28°34' W 013°13'410.1
2017-Nov-11 07:59N 28°30' W 013°16'2110.4
2017-Nov-11 05:58N 28°13' W 013°30'610.3
2017-Nov-11 05:25N 28°08' W 013°33'410.1
2017-Nov-11 04:59N 28°05' W 013°36'5 9.9
2017-Nov-11 04:30N 28°01' W 013°39'5 9.7
2017-Nov-11 04:00N 27°57' W 013°42'5 9.5
2017-Nov-11 03:30N 27°53' W 013°45'5 9.6
2017-Nov-11 03:00N 27°49' W 013°48'5 9.4
2017-Nov-11 02:29N 27°45' W 013°51'4 9.3
2017-Nov-11 02:00N 27°41' W 013°54'5 9.0
2017-Nov-11 01:30N 27°37' W 013°57'5 9.0
2017-Nov-11 01:00N 27°34' W 014°00'5 9.4
2017-Nov-11 00:30N 27°30' W 014°03'5 9.4
2017-Nov-11 00:00N 27°26' W 014°06'5 9.8
2017-Nov-10 23:30N 27°22' W 014°09'5 9.9
2017-Nov-10 23:00N 27°18' W 014°12'5 9.7
2017-Nov-10 22:30N 27°14' W 014°16'5 9.4
2017-Nov-10 22:00N 27°10' W 014°19'5 9.2
2017-Nov-10 21:30N 27°06' W 014°21'5 9.3
2017-Nov-10 21:00N 27°02' W 014°24'5 9.5
2017-Nov-10 20:30N 26°58' W 014°28'5 9.4
2017-Nov-10 20:00N 26°55' W 014°30'5 9.5
2017-Nov-10 19:30N 26°51' W 014°34'5 9.5
2017-Nov-10 19:00N 26°47' W 014°37'5 9.4
2017-Nov-10 18:30N 26°43' W 014°40'5 9.6
2017-Nov-10 18:00N 26°39' W 014°43'5 9.5
2017-Nov-10 17:30N 26°35' W 014°45'5 9.2
2017-Nov-10 17:00N 26°31' W 014°48'5 9.3
2017-Nov-10 16:29N 26°27' W 014°51'4 9.3
2017-Nov-10 16:00N 26°23' W 014°54'6 9.5
2017-Nov-10 15:25N 26°19' W 014°58'4 9.7
2017-Nov-10 15:00N 26°16' W 015°00'5 9.5
2017-Nov-10 14:29N 26°12' W 015°04'5 9.5
2017-Nov-10 13:59N 26°08' W 015°07'5 9.7
2017-Nov-10 13:30N 26°04' W 015°09'5 9.5
2017-Nov-10 13:00N 25°60' W 015°13'5 9.5
2017-Nov-10 12:27N 25°56' W 015°16'4 9.4
2017-Nov-10 11:59N 25°52' W 015°19'5 9.6
2017-Nov-10 11:27N 25°48' W 015°22'4 9.6
2017-Nov-10 11:00N 25°44' W 015°24'  

Dump ship's entire track history